createdAt,value
2019-04-30T00:01:17.012Z,5.80
2019-04-30T00:03:40.002Z,5.60
2019-04-30T00:06:07.539Z,5.50
2019-04-30T00:08:35.414Z,5.50
2019-04-30T00:11:02.428Z,5.50
2019-04-30T00:13:28.916Z,5.80
2019-04-30T00:15:58.755Z,5.50
2019-04-30T00:18:25.402Z,5.20
2019-04-30T00:20:52.021Z,5.00
2019-04-30T00:23:22.701Z,4.80
2019-04-30T00:25:46.581Z,4.10
2019-04-30T00:28:12.955Z,4.60
2019-04-30T00:30:43.846Z,4.60
2019-04-30T00:33:08.446Z,4.60
2019-04-30T00:35:35.647Z,4.80
2019-04-30T00:38:02.314Z,4.80
2019-04-30T00:40:30.205Z,4.70
2019-04-30T00:43:00.260Z,4.70
2019-04-30T00:45:25.250Z,4.70
2019-04-30T00:47:51.812Z,4.90
2019-04-30T00:50:18.650Z,4.80
2019-04-30T00:52:45.782Z,4.80
2019-04-30T00:55:14.898Z,4.80
2019-04-30T00:57:43.826Z,4.20
2019-04-30T01:00:11.147Z,4.90
2019-04-30T01:02:55.871Z,4.70
2019-04-30T01:05:26.830Z,4.60
2019-04-30T01:07:52.175Z,4.50
2019-04-30T01:10:19.681Z,4.50
2019-04-30T01:12:49.997Z,4.70
2019-04-30T01:15:15.469Z,4.80
2019-04-30T01:17:45.439Z,4.90
2019-04-30T01:20:11.534Z,4.90
2019-04-30T01:22:38.853Z,4.90
2019-04-30T01:25:12.279Z,4.90
2019-04-30T01:27:39.536Z,5.00
2019-04-30T01:30:08.817Z,4.90
2019-04-30T01:32:36.030Z,4.80
2019-04-30T01:35:05.906Z,5.10
2019-04-30T01:37:32.946Z,4.90
2019-04-30T01:40:03.169Z,5.00
2019-04-30T01:42:28.458Z,5.00
2019-04-30T01:44:54.816Z,4.90
2019-04-30T01:47:27.508Z,4.90
2019-04-30T01:49:49.626Z,5.00
2019-04-30T01:52:16.428Z,5.00
2019-04-30T01:54:43.033Z,4.90
2019-04-30T01:57:16.885Z,5.00
2019-04-30T02:00:01.397Z,5.00
2019-04-30T02:02:30.057Z,5.00
2019-04-30T02:04:56.367Z,5.00
2019-04-30T02:07:22.884Z,5.00
2019-04-30T02:09:49.411Z,5.00
2019-04-30T02:12:15.825Z,5.10
2019-04-30T02:14:42.315Z,5.10
2019-04-30T02:17:09.391Z,5.10
2019-04-30T02:19:35.916Z,5.50
2019-04-30T02:22:02.318Z,5.00
2019-04-30T02:24:29.041Z,4.90
2019-04-30T02:26:55.404Z,3.90
2019-04-30T02:29:21.921Z,4.80
2019-04-30T02:31:50.436Z,4.80
2019-04-30T02:34:30.077Z,4.70
2019-04-30T02:37:01.090Z,4.80
2019-04-30T02:39:30.116Z,5.30
2019-04-30T02:45:45.650Z,4.70
2019-04-30T02:48:14.345Z,4.90
2019-04-30T02:50:42.509Z,5.50
2019-04-30T02:53:46.336Z,4.70
2019-04-30T02:56:13.195Z,4.70
2019-04-30T02:58:41.020Z,4.70
2019-04-30T03:01:10.150Z,4.70
2019-04-30T03:03:36.166Z,4.70
2019-04-30T03:06:02.639Z,4.60
2019-04-30T03:08:29.801Z,4.60
2019-04-30T03:10:56.360Z,4.60
2019-04-30T03:13:22.754Z,4.60
2019-04-30T03:15:49.463Z,4.50
2019-04-30T03:18:23.147Z,4.60
2019-04-30T03:21:03.816Z,4.70
2019-04-30T03:23:30.194Z,4.80
2019-04-30T03:25:56.674Z,4.80
2019-04-30T03:28:23.168Z,4.70
2019-04-30T03:30:56.148Z,4.70
2019-04-30T03:33:22.391Z,4.80
2019-04-30T03:35:48.233Z,4.70
2019-04-30T03:38:14.409Z,4.70
2019-04-30T03:40:40.739Z,4.70
2019-04-30T03:43:07.276Z,4.70
2019-04-30T03:45:33.708Z,4.70
2019-04-30T03:48:00.533Z,4.70
2019-04-30T03:50:31.526Z,4.80
2019-04-30T03:52:55.306Z,4.80
2019-04-30T03:55:24.693Z,4.80
2019-04-30T03:57:51.904Z,4.80
2019-04-30T04:00:20.504Z,4.80
2019-04-30T04:02:46.983Z,4.90
2019-04-30T04:05:15.649Z,4.90
2019-04-30T04:07:43.941Z,5.00
2019-04-30T04:10:19.523Z,5.00
2019-04-30T04:12:46.111Z,5.00
2019-04-30T04:15:12.609Z,5.10
2019-04-30T04:17:39.749Z,4.60
2019-04-30T04:20:06.263Z,5.10
2019-04-30T04:22:32.713Z,5.10
2019-04-30T04:25:00.135Z,5.10
2019-04-30T04:27:29.800Z,5.10
2019-04-30T04:29:54.964Z,5.20
2019-04-30T04:32:24.382Z,5.40
2019-04-30T04:34:50.676Z,5.50
2019-04-30T04:37:19.884Z,5.50
2019-04-30T04:39:49.719Z,5.50
2019-04-30T04:42:14.906Z,5.50
2019-04-30T04:44:41.626Z,5.50
2019-04-30T04:47:09.926Z,5.70
2019-04-30T04:49:39.787Z,5.70
2019-04-30T04:52:05.962Z,5.90
2019-04-30T04:54:32.433Z,6.10
2019-04-30T04:57:13.876Z,6.40
2019-04-30T04:59:29.779Z,6.70
2019-04-30T05:01:56.470Z,6.80
2019-04-30T05:04:22.838Z,6.80
2019-04-30T05:06:49.803Z,6.90
2019-04-30T05:09:16.450Z,7.00
2019-04-30T05:11:43.046Z,7.00
2019-04-30T05:14:10.955Z,7.00
2019-04-30T05:16:38.925Z,7.10
2019-04-30T05:19:05.423Z,7.30
2019-04-30T05:21:42.137Z,7.50
2019-04-30T05:24:00.229Z,7.60
2019-04-30T05:26:28.584Z,7.80
2019-04-30T05:28:54.952Z,8.80
2019-04-30T05:31:21.357Z,7.80
2019-04-30T05:33:48.905Z,7.90
2019-04-30T05:36:15.381Z,7.90
2019-04-30T05:38:41.757Z,8.00
2019-04-30T05:41:09.325Z,8.10
2019-04-30T05:43:35.820Z,7.00
2019-04-30T05:46:02.394Z,8.20
2019-04-30T05:48:28.831Z,8.20
2019-04-30T05:50:56.267Z,8.30
2019-04-30T05:53:22.635Z,8.40
2019-04-30T05:55:49.548Z,8.50
2019-04-30T05:58:16.240Z,8.70
2019-04-30T06:00:43.078Z,9.60
2019-04-30T06:03:09.602Z,9.00
2019-04-30T06:05:36.264Z,9.00
2019-04-30T06:08:02.932Z,9.10
2019-04-30T06:10:34.786Z,9.20
2019-04-30T06:13:12.228Z,9.20
2019-04-30T06:15:52.467Z,9.30
2019-04-30T06:18:20.420Z,9.40
2019-04-30T06:20:48.574Z,9.50
2019-04-30T06:23:15.254Z,9.50
2019-04-30T06:25:56.127Z,9.40
2019-04-30T06:28:10.347Z,10.10
2019-04-30T06:30:37.126Z,9.70
2019-04-30T06:33:03.615Z,9.80
2019-04-30T06:35:30.555Z,9.90
2019-04-30T06:37:58.949Z,10.00
2019-04-30T06:40:26.807Z,10.10
2019-04-30T06:42:53.434Z,10.20
2019-04-30T06:45:20.132Z,10.20
2019-04-30T06:47:48.942Z,10.40
2019-04-30T06:50:16.097Z,10.50
2019-04-30T06:52:53.993Z,10.50
2019-04-30T06:55:11.174Z,10.60
2019-04-30T06:57:38.429Z,10.70
2019-04-30T07:00:09.680Z,10.80
2019-04-30T07:02:36.135Z,10.80
2019-04-30T07:05:04.292Z,10.80
2019-04-30T07:07:38.946Z,11.00
2019-04-30T07:10:04.065Z,11.00
2019-04-30T07:12:35.221Z,11.10
2019-04-30T07:15:02.397Z,11.10
2019-04-30T07:17:29.250Z,11.20
2019-04-30T07:19:56.929Z,11.30
2019-04-30T07:22:36.482Z,11.50
2019-04-30T07:24:54.671Z,11.60
2019-04-30T07:27:24.129Z,11.70
2019-04-30T07:29:49.664Z,11.70
2019-04-30T07:32:16.328Z,11.80
2019-04-30T07:34:42.939Z,11.80
2019-04-30T07:37:17.221Z,11.90
2019-04-30T07:39:39.060Z,12.00
2019-04-30T07:42:09.260Z,12.10
2019-04-30T07:44:36.657Z,12.30
2019-04-30T07:47:03.365Z,12.30
2019-04-30T07:49:46.942Z,12.40
2019-04-30T07:52:01.742Z,12.50
2019-04-30T07:54:30.086Z,12.50
2019-04-30T07:56:56.698Z,13.50
2019-04-30T07:59:23.298Z,12.60
2019-04-30T08:02:06.591Z,12.80
2019-04-30T08:04:26.152Z,13.00
2019-04-30T08:06:52.907Z,13.20
2019-04-30T08:09:22.194Z,13.50
2019-04-30T08:11:49.203Z,13.60
2019-04-30T08:14:15.930Z,13.80
2019-04-30T08:16:42.691Z,14.40
2019-04-30T08:19:09.224Z,15.70
2019-04-30T08:21:35.744Z,17.30
2019-04-30T08:24:02.205Z,18.40
2019-04-30T08:26:29.353Z,19.00
2019-04-30T08:28:55.918Z,19.50
2019-04-30T08:31:22.495Z,20.00
2019-04-30T08:33:49.153Z,20.40
2019-04-30T08:36:15.739Z,20.70
2019-04-30T08:38:42.385Z,21.20
2019-04-30T08:41:09.444Z,21.00
2019-04-30T08:43:37.044Z,21.30
2019-04-30T08:46:03.910Z,21.50
2019-04-30T08:48:45.508Z,21.40
2019-04-30T08:50:59.121Z,21.20
2019-04-30T08:53:29.907Z,21.00
2019-04-30T08:55:54.240Z,21.30
2019-04-30T08:58:20.694Z,21.80
2019-04-30T09:00:48.572Z,21.30
2019-04-30T09:03:17.038Z,21.20
2019-04-30T09:05:45.396Z,21.30
2019-04-30T09:08:13.654Z,21.30
2019-04-30T09:10:41.567Z,21.40
2019-04-30T09:13:09.135Z,22.10
2019-04-30T09:15:37.580Z,22.20
2019-04-30T09:18:08.189Z,22.20
2019-04-30T09:20:32.806Z,22.30
2019-04-30T09:22:59.661Z,22.80
2019-04-30T09:25:26.127Z,23.10
2019-04-30T09:27:52.748Z,23.20
2019-04-30T09:30:19.296Z,23.20
2019-04-30T09:32:45.784Z,23.60
2019-04-30T09:35:12.098Z,24.20
2019-04-30T09:37:39.040Z,23.50
2019-04-30T09:40:17.626Z,24.30
2019-04-30T09:42:35.967Z,24.20
2019-04-30T09:45:04.884Z,23.90
2019-04-30T09:47:31.352Z,23.60
2019-04-30T09:49:59.607Z,23.60
2019-04-30T09:52:26.114Z,24.00
2019-04-30T09:54:52.822Z,24.20
2019-04-30T09:57:20.285Z,24.60
2019-04-30T09:59:48.463Z,24.10
2019-04-30T10:02:14.898Z,24.20
2019-04-30T10:04:41.720Z,24.50
2019-04-30T10:07:09.681Z,24.50
2019-04-30T10:09:39.585Z,24.50
2019-04-30T10:12:10.626Z,24.60
2019-04-30T10:14:40.796Z,24.40
2019-04-30T10:17:20.634Z,25.00
2019-04-30T10:19:49.230Z,25.40
2019-04-30T10:22:17.359Z,25.80
2019-04-30T10:24:44.118Z,25.70
2019-04-30T10:27:13.318Z,26.10
2019-04-30T10:29:40.927Z,26.30
2019-04-30T10:32:08.804Z,26.20
2019-04-30T10:34:35.406Z,25.90
2019-04-30T10:37:02.908Z,25.30
2019-04-30T10:39:30.499Z,25.20
2019-04-30T10:41:56.963Z,24.90
2019-04-30T10:44:23.443Z,23.90
2019-04-30T10:46:50.054Z,23.60
2019-04-30T10:49:16.420Z,23.60
2019-04-30T10:51:43.005Z,24.40
2019-04-30T10:54:09.663Z,24.70
2019-04-30T10:56:36.384Z,25.00
2019-04-30T10:59:03.650Z,25.10
2019-04-30T11:01:30.190Z,24.50
2019-04-30T11:03:57.440Z,24.20
2019-04-30T11:06:24.410Z,23.80
2019-04-30T11:08:50.848Z,23.70
2019-04-30T11:11:17.285Z,24.00
2019-04-30T11:13:43.781Z,23.90
2019-04-30T11:16:14.714Z,24.20
2019-04-30T11:18:41.691Z,24.50
2019-04-30T11:21:09.728Z,24.60
2019-04-30T11:23:36.476Z,24.00
2019-04-30T11:26:03.653Z,23.40
2019-04-30T11:28:30.735Z,23.00
2019-04-30T11:31:14.261Z,23.20
2019-04-30T11:33:40.969Z,23.50
2019-04-30T11:36:09.657Z,24.00
2019-04-30T11:38:36.476Z,23.80
2019-04-30T11:41:03.133Z,23.00
2019-04-30T11:43:29.613Z,23.50
2019-04-30T11:46:05.811Z,23.70
2019-04-30T11:48:33.004Z,24.10
2019-04-30T11:50:59.547Z,24.50
2019-04-30T11:53:30.164Z,24.60
2019-04-30T11:55:54.582Z,24.60
2019-04-30T11:58:21.973Z,24.70
2019-04-30T12:00:49.488Z,24.30
2019-04-30T12:03:16.302Z,24.30
2019-04-30T12:05:43.005Z,24.40
2019-04-30T12:08:14.271Z,24.00
2019-04-30T12:10:58.025Z,23.60
2019-04-30T12:13:31.012Z,23.30
2019-04-30T12:15:58.964Z,23.10
2019-04-30T12:18:25.715Z,23.30
2019-04-30T12:20:52.324Z,23.60
2019-04-30T12:23:21.577Z,23.90
2019-04-30T12:25:49.307Z,23.50
2019-04-30T12:28:16.727Z,23.40
2019-04-30T12:30:43.274Z,23.50
2019-04-30T12:33:11.353Z,22.90
2019-04-30T12:35:37.807Z,22.80
2019-04-30T12:38:04.422Z,22.70
2019-04-30T12:40:32.405Z,23.10
2019-04-30T12:42:59.921Z,22.90
2019-04-30T12:45:26.476Z,22.90
2019-04-30T12:47:54.957Z,23.00
2019-04-30T12:50:24.313Z,23.30
2019-04-30T12:53:00.662Z,23.20
2019-04-30T12:55:43.858Z,23.40
2019-04-30T12:58:11.415Z,23.50
2019-04-30T13:00:39.199Z,23.40
2019-04-30T13:03:08.816Z,23.90
2019-04-30T13:05:36.215Z,24.50
2019-04-30T13:08:03.735Z,25.10
2019-04-30T13:10:31.898Z,25.30
2019-04-30T13:12:59.939Z,25.50
2019-04-30T13:15:27.111Z,25.90
2019-04-30T13:17:54.401Z,25.40
2019-04-30T13:20:24.143Z,24.30
2019-04-30T13:22:51.351Z,23.50
2019-04-30T13:25:28.175Z,23.20
2019-04-30T13:27:48.340Z,23.40
2019-04-30T13:30:20.225Z,23.60
2019-04-30T13:32:49.441Z,22.90
2019-04-30T13:35:19.000Z,22.70
2019-04-30T13:37:50.780Z,22.70
2019-04-30T13:40:20.293Z,23.20
2019-04-30T13:42:52.710Z,23.40
2019-04-30T13:45:20.786Z,23.70
2019-04-30T13:47:48.919Z,23.70
2019-04-30T13:50:18.989Z,23.20
2019-04-30T13:52:45.082Z,22.30
2019-04-30T13:55:14.117Z,21.70
2019-04-30T13:57:45.545Z,21.10
2019-04-30T14:00:15.495Z,20.90
2019-04-30T14:02:44.874Z,20.40
2019-04-30T14:05:14.964Z,20.00
2019-04-30T14:07:43.637Z,19.80
2019-04-30T14:10:10.564Z,19.60
2019-04-30T14:12:39.939Z,19.40
2019-04-30T14:15:09.201Z,19.40
2019-04-30T14:17:36.890Z,19.20
2019-04-30T14:20:07.477Z,18.90
2019-04-30T14:22:37.143Z,18.90
2019-04-30T14:25:08.988Z,19.50
2019-04-30T14:27:35.768Z,18.50
2019-04-30T14:30:05.568Z,18.10
2019-04-30T14:32:32.564Z,17.70
2019-04-30T14:34:59.633Z,17.50
2019-04-30T14:37:26.919Z,17.20
2019-04-30T14:39:54.710Z,17.60
2019-04-30T14:42:22.485Z,17.50
2019-04-30T14:44:51.959Z,17.50
2019-04-30T14:47:22.013Z,17.40
2019-04-30T14:50:05.829Z,17.80
2019-04-30T14:52:34.228Z,18.20
2019-04-30T14:55:19.267Z,18.40
2019-04-30T14:57:51.344Z,18.60
2019-04-30T15:00:38.788Z,18.90
2019-04-30T15:03:09.460Z,19.30
2019-04-30T15:05:40.464Z,19.50
2019-04-30T15:08:05.570Z,19.40
2019-04-30T15:10:32.529Z,19.40
2019-04-30T15:13:00.241Z,19.10
2019-04-30T15:15:29.220Z,18.70
2019-04-30T15:17:56.547Z,18.30
2019-04-30T15:20:23.266Z,19.00
2019-04-30T15:22:55.026Z,17.70
2019-04-30T15:25:22.089Z,17.50
2019-04-30T15:27:49.637Z,17.60
2019-04-30T15:30:21.751Z,17.80
2019-04-30T15:32:49.473Z,17.80
2019-04-30T15:35:16.362Z,17.70
2019-04-30T15:37:45.280Z,17.80
2019-04-30T15:40:13.523Z,17.80
2019-04-30T15:42:42.181Z,17.90
2019-04-30T15:45:09.334Z,17.60
2019-04-30T15:47:35.987Z,17.60
2019-04-30T15:50:04.920Z,17.40
2019-04-30T15:52:31.715Z,17.40
2019-04-30T15:54:59.271Z,17.30
2019-04-30T15:57:25.960Z,17.30
2019-04-30T15:59:53.408Z,17.40
2019-04-30T16:02:30.983Z,17.40
2019-04-30T16:04:59.946Z,17.40
2019-04-30T16:07:26.770Z,17.20
2019-04-30T16:09:58.550Z,17.10
2019-04-30T16:12:28.620Z,17.00
2019-04-30T16:14:55.322Z,16.70
2019-04-30T16:17:23.637Z,16.90
2019-04-30T16:19:50.245Z,17.00
2019-04-30T16:22:20.574Z,17.10
2019-04-30T16:24:45.912Z,17.00
2019-04-30T16:27:13.722Z,17.00
2019-04-30T16:29:40.824Z,16.80
2019-04-30T16:32:09.279Z,16.90
2019-04-30T16:34:43.325Z,16.90
2019-04-30T16:37:12.163Z,17.00
2019-04-30T16:39:39.762Z,17.00
2019-04-30T16:42:06.652Z,16.90
2019-04-30T16:44:33.153Z,16.80
2019-04-30T16:47:13.121Z,16.70
2019-04-30T16:49:30.766Z,16.50
2019-04-30T16:52:01.186Z,16.60
2019-04-30T16:54:25.681Z,16.50
2019-04-30T16:57:03.058Z,16.40
2019-04-30T16:59:26.618Z,16.40
2019-04-30T17:01:57.792Z,16.40
2019-04-30T17:04:26.401Z,16.30
2019-04-30T17:06:58.768Z,16.40
2019-04-30T17:09:33.691Z,16.50
2019-04-30T17:12:17.002Z,16.50
2019-04-30T17:14:44.578Z,16.40
2019-04-30T17:17:11.238Z,16.30
2019-04-30T17:19:39.447Z,16.30
2019-04-30T17:22:07.172Z,16.20
2019-04-30T17:24:34.380Z,16.20
2019-04-30T17:27:02.024Z,16.10
2019-04-30T17:29:28.867Z,16.10
2019-04-30T17:31:56.042Z,16.20
2019-04-30T17:34:24.164Z,16.10
2019-04-30T17:36:50.775Z,16.10
2019-04-30T17:39:19.238Z,16.00
2019-04-30T17:41:46.196Z,15.30
2019-04-30T17:44:12.795Z,16.00
2019-04-30T17:46:39.936Z,16.00
2019-04-30T17:49:06.742Z,16.00
2019-04-30T17:51:33.560Z,16.00
2019-04-30T17:54:11.091Z,16.00
2019-04-30T17:56:40.741Z,16.00
2019-04-30T17:59:07.481Z,16.00
2019-04-30T18:01:34.801Z,15.90
2019-04-30T18:04:02.908Z,15.90
2019-04-30T18:06:29.632Z,15.90
2019-04-30T18:08:56.109Z,15.70
2019-04-30T18:11:22.819Z,15.70
2019-04-30T18:13:50.705Z,15.60
2019-04-30T18:16:18.743Z,15.60
2019-04-30T18:18:53.608Z,15.60
2019-04-30T18:21:22.281Z,15.50
2019-04-30T18:23:53.205Z,15.40
2019-04-30T18:26:20.070Z,15.30
2019-04-30T18:28:46.668Z,15.40
2019-04-30T18:31:13.224Z,15.30
2019-04-30T18:33:39.978Z,15.30
2019-04-30T18:36:06.539Z,15.20
2019-04-30T18:38:33.429Z,15.20
2019-04-30T18:41:00.086Z,15.10
2019-04-30T18:43:28.732Z,15.00
2019-04-30T18:45:55.534Z,14.80
2019-04-30T18:48:22.796Z,14.80
2019-04-30T18:50:49.593Z,14.80
2019-04-30T18:53:20.918Z,14.70
2019-04-30T18:55:50.666Z,14.60
2019-04-30T18:58:19.980Z,14.50
2019-04-30T19:00:46.862Z,14.40
2019-04-30T19:03:13.786Z,14.40
2019-04-30T19:05:42.769Z,14.30
2019-04-30T19:08:11.809Z,14.30
2019-04-30T19:10:49.673Z,14.20
2019-04-30T19:13:34.943Z,14.20
2019-04-30T19:16:18.563Z,14.10
2019-04-30T19:18:34.211Z,14.20
2019-04-30T19:21:02.523Z,14.10
2019-04-30T19:23:30.178Z,14.10
2019-04-30T19:26:02.852Z,14.10
2019-04-30T19:28:29.467Z,14.00
2019-04-30T19:31:02.359Z,14.00
2019-04-30T19:33:29.268Z,13.50
2019-04-30T19:35:58.587Z,13.90
2019-04-30T19:38:25.092Z,13.90
2019-04-30T19:40:51.560Z,13.90
2019-04-30T19:43:18.060Z,13.70
2019-04-30T19:45:44.434Z,13.80
2019-04-30T19:48:16.857Z,13.80
2019-04-30T19:50:43.416Z,13.70
2019-04-30T19:53:09.804Z,14.10
2019-04-30T19:55:36.258Z,13.70
2019-04-30T19:58:06.008Z,13.60
2019-04-30T20:00:33.524Z,13.60
2019-04-30T20:03:03.406Z,13.50
2019-04-30T20:05:30.148Z,13.50
2019-04-30T20:07:58.722Z,13.60
2019-04-30T20:10:25.227Z,13.60
2019-04-30T20:12:51.754Z,13.50
2019-04-30T20:15:21.776Z,13.40
2019-04-30T20:17:46.995Z,13.50
2019-04-30T20:20:18.801Z,13.50
2019-04-30T20:22:45.177Z,13.40
2019-04-30T20:25:11.626Z,13.40
2019-04-30T20:27:39.669Z,13.80
2019-04-30T20:30:06.821Z,13.30
2019-04-30T20:32:36.048Z,13.30
2019-04-30T20:35:02.536Z,13.30
2019-04-30T20:37:29.453Z,13.30
2019-04-30T20:40:00.797Z,13.20
2019-04-30T20:42:27.384Z,13.20
2019-04-30T20:44:54.057Z,13.10
2019-04-30T20:47:21.132Z,13.10
2019-04-30T20:49:49.010Z,13.00
2019-04-30T20:52:15.566Z,13.10
2019-04-30T20:54:43.906Z,13.10
2019-04-30T20:57:11.800Z,13.00
2019-04-30T20:59:41.448Z,13.00
2019-04-30T21:02:08.132Z,13.00
2019-04-30T21:04:34.891Z,13.00
2019-04-30T21:07:01.357Z,12.90
2019-04-30T21:09:27.850Z,12.90
2019-04-30T21:11:54.324Z,12.90
2019-04-30T21:14:20.782Z,12.90
2019-04-30T21:16:47.151Z,12.80
2019-04-30T21:19:13.778Z,12.80
2019-04-30T21:21:41.062Z,12.80
2019-04-30T21:24:07.855Z,12.80
2019-04-30T21:26:34.582Z,12.70
2019-04-30T21:29:11.014Z,12.70
2019-04-30T21:31:40.379Z,12.60
2019-04-30T21:34:09.525Z,12.60
2019-04-30T21:36:39.724Z,12.60
2019-04-30T21:39:06.410Z,12.80
2019-04-30T21:41:32.758Z,12.50
2019-04-30T21:43:59.288Z,13.10
2019-04-30T21:46:25.946Z,12.50
2019-04-30T21:48:52.575Z,12.40
2019-04-30T21:51:19.356Z,12.30
2019-04-30T21:53:45.893Z,12.40
2019-04-30T21:56:12.463Z,12.20
2019-04-30T21:58:39.465Z,12.20
2019-04-30T22:01:14.274Z,12.20
2019-04-30T22:03:42.524Z,12.10
2019-04-30T22:06:10.666Z,12.10
2019-04-30T22:08:38.812Z,12.00
2019-04-30T22:11:05.777Z,12.10
2019-04-30T22:13:32.458Z,12.10
2019-04-30T22:15:58.864Z,12.10
2019-04-30T22:18:26.111Z,12.00
2019-04-30T22:20:53.821Z,12.00
2019-04-30T22:23:20.326Z,11.90
2019-04-30T22:25:46.892Z,11.80
2019-04-30T22:28:13.485Z,11.90
2019-04-30T22:30:40.191Z,11.80
2019-04-30T22:33:08.916Z,11.60
2019-04-30T22:35:43.509Z,11.60
2019-04-30T22:38:11.995Z,11.50
2019-04-30T22:40:39.248Z,11.50
2019-04-30T22:43:06.739Z,11.40
2019-04-30T22:45:38.299Z,11.40
2019-04-30T22:48:08.764Z,11.30
2019-04-30T22:50:34.822Z,11.30
2019-04-30T22:53:01.308Z,11.20
2019-04-30T22:55:30.871Z,11.10
2019-04-30T22:57:57.441Z,11.10
2019-04-30T23:00:35.657Z,11.10
2019-04-30T23:03:21.623Z,11.10
2019-04-30T23:05:48.367Z,11.10
2019-04-30T23:08:14.809Z,11.10
2019-04-30T23:10:41.691Z,11.10
2019-04-30T23:13:08.841Z,11.00
2019-04-30T23:15:35.856Z,11.00
2019-04-30T23:18:02.377Z,10.90
2019-04-30T23:20:29.055Z,10.90
2019-04-30T23:22:55.829Z,10.80
2019-04-30T23:25:22.613Z,10.70
2019-04-30T23:27:49.216Z,10.70
2019-04-30T23:30:16.034Z,10.70
2019-04-30T23:32:42.596Z,10.70
2019-04-30T23:35:09.433Z,10.60
2019-04-30T23:37:36.057Z,11.00
2019-04-30T23:40:22.533Z,10.70
2019-04-30T23:42:49.933Z,10.60
2019-04-30T23:45:16.543Z,10.60
2019-04-30T23:47:43.333Z,10.90
2019-04-30T23:50:12.101Z,10.70
2019-04-30T23:52:38.592Z,10.70
2019-04-30T23:55:05.220Z,10.70
2019-04-30T23:57:31.667Z,10.60
2019-04-30T23:59:58.344Z,9.60
